Shirley P. Settoon — WDF9252 — position and weather

sailwx.info

Track history (hours):
 
Tides and Currents Weather Stations Pressure Air Temp Water Temp Dewpoint Dewpoint Depression Visibility Wind Speed Wind Dir Waves Ship Positions

Shirley P. Settoon

Owner: Settoon Towing, LLC, Houma, LA. More information available from US FCC via Universal Licensing System and Coast Guard Vessel Documentation Center.

Last reported at 2016-May-16 14:17 UTC. Time now 2016-May-30 12:38 UTC.
Position N 32°44' W 091°04'.
Warning: this ship's position is 13 days out of date.

Length 32 m.

Type: Towing. MMSI: 367503240.

Date/timePositionNaut miles runAvg speedWind from/ knotsBaromVisibWave heightAir tempDewpointWater temp
2016-May-16 14:17N 32°44' W 091°04'9 2.5
2016-May-16 10:33N 32°35' W 091°08'2 1.7
2016-May-16 09:33N 32°34' W 091°07'2 2.4
2016-May-16 08:33N 32°32' W 091°06'3 3.0
2016-May-16 07:33N 32°29' W 091°07'3 3.1
2016-May-16 06:34N 32°27' W 091°04'3 2.9
2016-May-16 05:33N 32°26' W 091°01'3 2.6
2016-May-16 04:33N 32°23' W 090°60'3 2.6
2016-May-16 03:33N 32°21' W 090°58'4 3.6
2016-May-16 02:33N 32°19' W 090°54'3 3.4
2016-May-16 01:33N 32°17' W 090°57'3 3.5
2016-May-16 00:33N 32°14' W 090°59'4 3.8
2016-May-15 23:33N 32°10' W 090°60'4 3.5
2016-May-15 22:31N 32°07' W 091°02'3 3.3
2016-May-15 21:29N 32°08' W 091°06'  
Track history (hours):
 
Tides and Currents Weather Stations Pressure Air Temp Water Temp Dewpoint Dewpoint Depression Visibility Wind Speed Wind Dir Waves Ship Positions

Shirley P. Settoon

Owner: Settoon Towing, LLC, Houma, LA. More information available from US FCC via Universal Licensing System and Coast Guard Vessel Documentation Center.

Last reported at 2016-May-16 14:17 UTC. Time now 2016-May-30 12:38 UTC.
Position N 32°44' W 091°04'.
Warning: this ship's position is 13 days out of date.

Length 32 m.

Type: Towing. MMSI: 367503240.

Date/timePositionNaut miles runAvg speedWind from/ knotsBaromVisibWave heightAir tempDewpointWater temp
2016-May-16 14:17N 32°44' W 091°04'9 2.5
2016-May-16 10:33N 32°35' W 091°08'2 1.7
2016-May-16 09:33N 32°34' W 091°07'2 2.4
2016-May-16 08:33N 32°32' W 091°06'3 3.0
2016-May-16 07:33N 32°29' W 091°07'3 3.1
2016-May-16 06:34N 32°27' W 091°04'3 2.9
2016-May-16 05:33N 32°26' W 091°01'3 2.6
2016-May-16 04:33N 32°23' W 090°60'3 2.6
2016-May-16 03:33N 32°21' W 090°58'4 3.6
2016-May-16 02:33N 32°19' W 090°54'3 3.4
2016-May-16 01:33N 32°17' W 090°57'3 3.5
2016-May-16 00:33N 32°14' W 090°59'4 3.8
2016-May-15 23:33N 32°10' W 090°60'4 3.5
2016-May-15 22:31N 32°07' W 091°02'3 3.3
2016-May-15 21:29N 32°08' W 091°06'  

Dump ship's entire track history